sensor_id;sensor_type;location;lat;lon;timestamp;pressure;altitude;pressure_sealevel;temperature;humidity
40117;BME280;25829;50.228;18.936;2022-08-19T00:00:37;97997.81;;;22.68;57.91
40117;BME280;25829;50.228;18.936;2022-08-19T00:03:38;97992.22;;;22.64;58.01
40117;BME280;25829;50.228;18.936;2022-08-19T00:06:41;98002.50;;;22.62;58.27
40117;BME280;25829;50.228;18.936;2022-08-19T00:09:42;98006.06;;;22.58;58.30
40117;BME280;25829;50.228;18.936;2022-08-19T00:12:43;98005.88;;;22.54;58.38
40117;BME280;25829;50.228;18.936;2022-08-19T00:15:43;98005.63;;;22.51;58.65
40117;BME280;25829;50.228;18.936;2022-08-19T00:18:45;98001.16;;;22.46;58.55
40117;BME280;25829;50.228;18.936;2022-08-19T00:21:45;97992.09;;;22.42;58.63
40117;BME280;25829;50.228;18.936;2022-08-19T00:24:46;97992.16;;;22.37;58.99
40117;BME280;25829;50.228;18.936;2022-08-19T00:27:47;97988.22;;;22.34;59.13
40117;BME280;25829;50.228;18.936;2022-08-19T00:30:48;97987.22;;;22.30;59.34
40117;BME280;25829;50.228;18.936;2022-08-19T00:33:49;97977.63;;;22.24;59.42
40117;BME280;25829;50.228;18.936;2022-08-19T00:36:50;97977.72;;;22.19;59.58
40117;BME280;25829;50.228;18.936;2022-08-19T00:39:54;97971.66;;;22.13;59.47
40117;BME280;25829;50.228;18.936;2022-08-19T00:42:56;97979.19;;;22.11;59.75
40117;BME280;25829;50.228;18.936;2022-08-19T00:45:56;97973.34;;;22.09;59.90
40117;BME280;25829;50.228;18.936;2022-08-19T00:48:57;97970.72;;;22.04;59.96
40117;BME280;25829;50.228;18.936;2022-08-19T00:52:07;97969.19;;;21.98;60.43
40117;BME280;25829;50.228;18.936;2022-08-19T00:55:09;97960.94;;;21.94;60.37
40117;BME280;25829;50.228;18.936;2022-08-19T00:58:15;97961.00;;;21.89;60.45
40117;BME280;25829;50.228;18.936;2022-08-19T01:01:16;97971.53;;;21.86;60.77
40117;BME280;25829;50.228;18.936;2022-08-19T01:04:17;97960.78;;;21.86;60.85
40117;BME280;25829;50.228;18.936;2022-08-19T01:07:18;97953.59;;;21.81;60.79
40117;BME280;25829;50.228;18.936;2022-08-19T01:10:21;97967.34;;;21.80;61.03
40117;BME280;25829;50.228;18.936;2022-08-19T01:13:26;97960.97;;;21.76;60.94
40117;BME280;25829;50.228;18.936;2022-08-19T01:16:28;97962.63;;;21.72;61.07
40117;BME280;25829;50.228;18.936;2022-08-19T01:19:36;97965.09;;;21.68;61.38
40117;BME280;25829;50.228;18.936;2022-08-19T01:22:43;97957.91;;;21.63;61.35
40117;BME280;25829;50.228;18.936;2022-08-19T01:25:50;97963.84;;;21.60;61.44
40117;BME280;25829;50.228;18.936;2022-08-19T01:28:54;97958.00;;;21.58;61.58
40117;BME280;25829;50.228;18.936;2022-08-19T01:31:55;97959.06;;;21.57;61.63
40117;BME280;25829;50.228;18.936;2022-08-19T01:34:56;97962.06;;;21.56;61.68
40117;BME280;25829;50.228;18.936;2022-08-19T01:38:04;97965.31;;;21.53;62.08
40117;BME280;25829;50.228;18.936;2022-08-19T01:41:09;97964.31;;;21.49;62.03
40117;BME280;25829;50.228;18.936;2022-08-19T01:44:10;97959.25;;;21.47;62.01
40117;BME280;25829;50.228;18.936;2022-08-19T01:47:11;97956.84;;;21.45;62.08
40117;BME280;25829;50.228;18.936;2022-08-19T01:50:12;97951.78;;;21.44;62.39
40117;BME280;25829;50.228;18.936;2022-08-19T01:53:13;97953.66;;;21.43;62.22
40117;BME280;25829;50.228;18.936;2022-08-19T01:56:15;97949.69;;;21.41;62.10
40117;BME280;25829;50.228;18.936;2022-08-19T01:59:17;97949.16;;;21.39;62.48
40117;BME280;25829;50.228;18.936;2022-08-19T02:02:19;97942.47;;;21.36;62.53
40117;BME280;25829;50.228;18.936;2022-08-19T02:05:20;97953.50;;;21.35;62.77
40117;BME280;25829;50.228;18.936;2022-08-19T02:08:22;97941.25;;;21.29;62.81
40117;BME280;25829;50.228;18.936;2022-08-19T02:11:25;97939.94;;;21.26;62.71
40117;BME280;25829;50.228;18.936;2022-08-19T02:14:27;97953.44;;;21.21;63.04
40117;BME280;25829;50.228;18.936;2022-08-19T02:17:28;97941.94;;;21.15;63.00
40117;BME280;25829;50.228;18.936;2022-08-19T02:20:29;97951.06;;;21.14;63.16
40117;BME280;25829;50.228;18.936;2022-08-19T02:23:31;97951.16;;;21.09;63.35
40117;BME280;25829;50.228;18.936;2022-08-19T02:26:32;97938.91;;;21.03;63.50
40117;BME280;25829;50.228;18.936;2022-08-19T02:29:33;97948.38;;;20.95;63.81
40117;BME280;25829;50.228;18.936;2022-08-19T02:32:34;97946.56;;;20.91;63.86
40117;BME280;25829;50.228;18.936;2022-08-19T02:35:35;97937.72;;;20.90;64.01
40117;BME280;25829;50.228;18.936;2022-08-19T02:38:35;97935.81;;;20.91;64.08
40117;BME280;25829;50.228;18.936;2022-08-19T02:41:37;97936.91;;;20.90;64.07
40117;BME280;25829;50.228;18.936;2022-08-19T02:44:38;97937.22;;;20.88;64.17
40117;BME280;25829;50.228;18.936;2022-08-19T02:47:39;97940.16;;;20.87;64.31
40117;BME280;25829;50.228;18.936;2022-08-19T02:50:40;97942.34;;;20.85;64.45
40117;BME280;25829;50.228;18.936;2022-08-19T02:53:41;97937.56;;;20.82;64.49
40117;BME280;25829;50.228;18.936;2022-08-19T02:56:43;97930.59;;;20.81;64.37
40117;BME280;25829;50.228;18.936;2022-08-19T02:59:44;97924.22;;;20.76;64.63
40117;BME280;25829;50.228;18.936;2022-08-19T03:02:45;97927.47;;;20.73;64.66
40117;BME280;25829;50.228;18.936;2022-08-19T03:05:47;97935.50;;;20.73;64.69
40117;BME280;25829;50.228;18.936;2022-08-19T03:08:48;97936.91;;;20.71;64.68
40117;BME280;25829;50.228;18.936;2022-08-19T03:11:52;97933.72;;;20.64;65.00
40117;BME280;25829;50.228;18.936;2022-08-19T03:14:53;97939.16;;;20.59;65.18
40117;BME280;25829;50.228;18.936;2022-08-19T03:17:53;97939.75;;;20.56;65.33
40117;BME280;25829;50.228;18.936;2022-08-19T03:20:54;97935.16;;;20.56;65.22
40117;BME280;25829;50.228;18.936;2022-08-19T03:23:58;97932.50;;;20.56;65.19
40117;BME280;25829;50.228;18.936;2022-08-19T03:26:59;97939.75;;;20.56;65.48
40117;BME280;25829;50.228;18.936;2022-08-19T03:29:59;97932.50;;;20.56;65.42
40117;BME280;25829;50.228;18.936;2022-08-19T03:33:00;97928.22;;;20.55;65.47
40117;BME280;25829;50.228;18.936;2022-08-19T03:36:08;97948.06;;;20.54;65.52
40117;BME280;25829;50.228;18.936;2022-08-19T03:39:09;97953.22;;;20.50;65.44
40117;BME280;25829;50.228;18.936;2022-08-19T03:42:11;97950.00;;;20.48;65.54
40117;BME280;25829;50.228;18.936;2022-08-19T03:45:12;97947.63;;;20.47;65.54
40117;BME280;25829;50.228;18.936;2022-08-19T03:48:12;97948.69;;;20.46;65.68
40117;BME280;25829;50.228;18.936;2022-08-19T03:51:28;97946.78;;;20.46;66.04
40117;BME280;25829;50.228;18.936;2022-08-19T03:54:31;97950.88;;;20.39;65.86
40117;BME280;25829;50.228;18.936;2022-08-19T03:57:33;97957.31;;;20.38;65.99
40117;BME280;25829;50.228;18.936;2022-08-19T04:00:34;97956.22;;;20.39;65.88
40117;BME280;25829;50.228;18.936;2022-08-19T04:03:36;97962.91;;;20.41;65.91
40117;BME280;25829;50.228;18.936;2022-08-19T04:06:39;97971.75;;;20.42;65.97
40117;BME280;25829;50.228;18.936;2022-08-19T04:09:40;97976.88;;;20.38;66.08
40117;BME280;25829;50.228;18.936;2022-08-19T04:12:40;97968.31;;;20.36;66.15
40117;BME280;25829;50.228;18.936;2022-08-19T04:15:42;97972.88;;;20.36;66.32
40117;BME280;25829;50.228;18.936;2022-08-19T04:18:43;97969.38;;;20.35;66.41
40117;BME280;25829;50.228;18.936;2022-08-19T04:21:46;97973.38;;;20.38;66.31
40117;BME280;25829;50.228;18.936;2022-08-19T04:24:47;97981.94;;;20.40;66.39
40117;BME280;25829;50.228;18.936;2022-08-19T04:27:48;97994.78;;;20.43;66.30
40117;BME280;25829;50.228;18.936;2022-08-19T04:30:51;97989.66;;;20.46;66.33
40117;BME280;25829;50.228;18.936;2022-08-19T04:33:53;97996.88;;;20.51;66.21
40117;BME280;25829;50.228;18.936;2022-08-19T04:36:56;98001.09;;;20.57;66.25
40117;BME280;25829;50.228;18.936;2022-08-19T04:39:57;98007.97;;;20.63;66.25
40117;BME280;25829;50.228;18.936;2022-08-19T04:43:16;98003.06;;;20.70;66.01
40117;BME280;25829;50.228;18.936;2022-08-19T04:46:17;98004.94;;;20.75;66.00
40117;BME280;25829;50.228;18.936;2022-08-19T04:49:20;98004.06;;;20.80;65.80
40117;BME280;25829;50.228;18.936;2022-08-19T04:52:22;98003.94;;;20.90;65.72
40117;BME280;25829;50.228;18.936;2022-08-19T04:55:23;98005.72;;;20.99;65.59
40117;BME280;25829;50.228;18.936;2022-08-19T04:58:26;98007.75;;;21.08;65.47
40117;BME280;25829;50.228;18.936;2022-08-19T05:01:28;98000.66;;;21.17;65.45
40117;BME280;25829;50.228;18.936;2022-08-19T05:04:29;97997.88;;;21.27;65.18
40117;BME280;25829;50.228;18.936;2022-08-19T05:07:32;97992.09;;;21.39;64.98
40117;BME280;25829;50.228;18.936;2022-08-19T05:10:42;97994.63;;;21.49;64.91
40117;BME280;25829;50.228;18.936;2022-08-19T05:13:44;97999.13;;;21.54;64.51
40117;BME280;25829;50.228;18.936;2022-08-19T05:16:45;98000.16;;;21.58;64.28
40117;BME280;25829;50.228;18.936;2022-08-19T05:19:45;97997.09;;;21.64;64.19
40117;BME280;25829;50.228;18.936;2022-08-19T05:23:05;97997.53;;;21.72;63.97
40117;BME280;25829;50.228;18.936;2022-08-19T05:26:05;98002.53;;;21.78;63.95
40117;BME280;25829;50.228;18.936;2022-08-19T05:29:07;98004.81;;;21.85;63.88
40117;BME280;25829;50.228;18.936;2022-08-19T05:32:08;98011.47;;;21.92;63.58
40117;BME280;25829;50.228;18.936;2022-08-19T05:35:11;98014.84;;;21.98;63.37
40117;BME280;25829;50.228;18.936;2022-08-19T05:38:12;98011.81;;;22.05;63.37
40117;BME280;25829;50.228;18.936;2022-08-19T05:41:14;98017.91;;;22.10;63.41
40117;BME280;25829;50.228;18.936;2022-08-19T05:44:29;98024.50;;;22.18;63.48
40117;BME280;25829;50.228;18.936;2022-08-19T05:47:31;98015.53;;;22.23;63.40
40117;BME280;25829;50.228;18.936;2022-08-19T05:50:32;98015.47;;;22.28;63.13
40117;BME280;25829;50.228;18.936;2022-08-19T05:53:34;98013.47;;;22.33;62.88
40117;BME280;25829;50.228;18.936;2022-08-19T05:56:35;98019.56;;;22.39;62.77
40117;BME280;25829;50.228;18.936;2022-08-19T05:59:38;98021.06;;;22.45;62.45
40117;BME280;25829;50.228;18.936;2022-08-19T06:02:40;98009.94;;;22.52;62.14
40117;BME280;25829;50.228;18.936;2022-08-19T06:05:47;98028.84;;;22.60;62.00
40117;BME280;25829;50.228;18.936;2022-08-19T06:08:47;98032.47;;;22.70;61.58
40117;BME280;25829;50.228;18.936;2022-08-19T06:11:53;98026.72;;;22.76;61.66
40117;BME280;25829;50.228;18.936;2022-08-19T06:14:54;98023.03;;;22.86;61.61
40117;BME280;25829;50.228;18.936;2022-08-19T06:17:55;98017.47;;;22.96;61.45
40117;BME280;25829;50.228;18.936;2022-08-19T06:20:56;98026.72;;;23.04;61.19
40117;BME280;25829;50.228;18.936;2022-08-19T06:23:57;98035.66;;;23.13;60.99
40117;BME280;25829;50.228;18.936;2022-08-19T06:26:59;98026.13;;;23.21;61.03
40117;BME280;25829;50.228;18.936;2022-08-19T06:30:02;98033.47;;;23.29;61.25
40117;BME280;25829;50.228;18.936;2022-08-19T06:33:03;98033.88;;;23.36;60.79
40117;BME280;25829;50.228;18.936;2022-08-19T06:36:03;98043.75;;;23.41;60.31
40117;BME280;25829;50.228;18.936;2022-08-19T06:39:07;98048.03;;;23.42;60.48
40117;BME280;25829;50.228;18.936;2022-08-19T06:42:09;98041.25;;;23.44;60.28
40117;BME280;25829;50.228;18.936;2022-08-19T06:45:16;98046.81;;;23.48;60.15
40117;BME280;25829;50.228;18.936;2022-08-19T06:48:17;98061.16;;;23.57;60.40
40117;BME280;25829;50.228;18.936;2022-08-19T06:51:19;98070.72;;;23.63;60.09
40117;BME280;25829;50.228;18.936;2022-08-19T06:54:20;98069.03;;;23.67;60.12
40117;BME280;25829;50.228;18.936;2022-08-19T06:57:20;98065.13;;;23.73;60.41
40117;BME280;25829;50.228;18.936;2022-08-19T07:00:21;98072.28;;;23.78;60.39
40117;BME280;25829;50.228;18.936;2022-08-19T07:03:22;98061.41;;;23.83;60.11
40117;BME280;25829;50.228;18.936;2022-08-19T07:06:23;98066.47;;;23.85;59.88
40117;BME280;25829;50.228;18.936;2022-08-19T07:09:25;98075.34;;;23.85;59.93
40117;BME280;25829;50.228;18.936;2022-08-19T07:12:30;98092.50;;;23.89;59.78
40117;BME280;25829;50.228;18.936;2022-08-19T07:15:33;98083.03;;;23.92;59.80
40117;BME280;25829;50.228;18.936;2022-08-19T07:18:35;98102.84;;;23.96;59.72
40117;BME280;25829;50.228;18.936;2022-08-19T07:21:36;98101.22;;;24.00;59.67
40117;BME280;25829;50.228;18.936;2022-08-19T07:24:37;98096.28;;;24.02;59.79
40117;BME280;25829;50.228;18.936;2022-08-19T07:27:38;98099.69;;;24.08;59.55
40117;BME280;25829;50.228;18.936;2022-08-19T07:30:39;98107.81;;;24.16;59.70
40117;BME280;25829;50.228;18.936;2022-08-19T07:33:41;98112.00;;;24.22;59.54
40117;BME280;25829;50.228;18.936;2022-08-19T07:36:44;98116.44;;;24.27;59.42
40117;BME280;25829;50.228;18.936;2022-08-19T07:39:44;98110.47;;;24.30;59.37
40117;BME280;25829;50.228;18.936;2022-08-19T07:42:45;98112.72;;;24.37;59.70
40117;BME280;25829;50.228;18.936;2022-08-19T07:45:46;98121.19;;;24.44;59.79
40117;BME280;25829;50.228;18.936;2022-08-19T07:48:49;98123.44;;;24.50;59.62
40117;BME280;25829;50.228;18.936;2022-08-19T07:51:56;98114.59;;;24.59;59.73
40117;BME280;25829;50.228;18.936;2022-08-19T07:54:57;98122.63;;;24.64;59.78
40117;BME280;25829;50.228;18.936;2022-08-19T07:58:00;98122.19;;;24.70;59.41
40117;BME280;25829;50.228;18.936;2022-08-19T08:01:01;98120.34;;;24.80;59.57
40117;BME280;25829;50.228;18.936;2022-08-19T08:04:03;98124.19;;;24.87;59.76
40117;BME280;25829;50.228;18.936;2022-08-19T08:07:22;98128.13;;;24.90;59.01
40117;BME280;25829;50.228;18.936;2022-08-19T08:10:43;98125.81;;;24.97;58.79
40117;BME280;25829;50.228;18.936;2022-08-19T08:13:44;98118.69;;;25.01;58.87
40117;BME280;25829;50.228;18.936;2022-08-19T08:16:45;98130.63;;;25.09;59.22
40117;BME280;25829;50.228;18.936;2022-08-19T08:19:47;98124.47;;;25.17;59.37
40117;BME280;25829;50.228;18.936;2022-08-19T08:22:48;98123.22;;;25.23;59.53
40117;BME280;25829;50.228;18.936;2022-08-19T08:26:08;98121.50;;;25.27;58.94
40117;BME280;25829;50.228;18.936;2022-08-19T08:29:13;98123.28;;;25.32;58.99
40117;BME280;25829;50.228;18.936;2022-08-19T08:32:15;98115.81;;;25.37;58.96
40117;BME280;25829;50.228;18.936;2022-08-19T08:35:19;98117.13;;;25.48;59.17
40117;BME280;25829;50.228;18.936;2022-08-19T08:38:20;98111.00;;;25.83;59.61
40117;BME280;25829;50.228;18.936;2022-08-19T08:41:53;98120.72;;;26.10;58.07
40117;BME280;25829;50.228;18.936;2022-08-19T08:45:00;98122.66;;;26.27;58.33
40117;BME280;25829;50.228;18.936;2022-08-19T08:48:18;98117.06;;;26.40;57.71
40117;BME280;25829;50.228;18.936;2022-08-19T08:51:40;98111.47;;;26.63;57.27
40117;BME280;25829;50.228;18.936;2022-08-19T08:54:44;98101.28;;;26.77;57.69
40117;BME280;25829;50.228;18.936;2022-08-19T09:00:54;98087.16;;;27.10;56.51
40117;BME280;25829;50.228;18.936;2022-08-19T09:03:55;98088.72;;;27.20;56.35
40117;BME280;25829;50.228;18.936;2022-08-19T09:07:20;98096.13;;;27.31;55.23
40117;BME280;25829;50.228;18.936;2022-08-19T09:10:39;98102.47;;;27.35;55.38
40117;BME280;25829;50.228;18.936;2022-08-19T09:14:08;98095.16;;;27.36;55.07
40117;BME280;25829;50.228;18.936;2022-08-19T09:17:14;98104.25;;;27.31;55.88
40117;BME280;25829;50.228;18.936;2022-08-19T09:20:20;98095.03;;;27.32;55.89
40117;BME280;25829;50.228;18.936;2022-08-19T09:23:22;98103.28;;;27.36;56.29
40117;BME280;25829;50.228;18.936;2022-08-19T09:26:25;98098.28;;;27.47;56.35
40117;BME280;25829;50.228;18.936;2022-08-19T09:29:26;98100.47;;;27.53;56.12
40117;BME280;25829;50.228;18.936;2022-08-19T09:32:26;98099.94;;;27.60;55.76
40117;BME280;25829;50.228;18.936;2022-08-19T09:35:29;98099.56;;;27.70;55.90
40117;BME280;25829;50.228;18.936;2022-08-19T09:38:30;98111.81;;;27.76;55.52
40117;BME280;25829;50.228;18.936;2022-08-19T09:41:31;98112.88;;;27.84;55.74
40117;BME280;25829;50.228;18.936;2022-08-19T09:44:32;98105.34;;;27.90;55.37
40117;BME280;25829;50.228;18.936;2022-08-19T09:47:33;98097.81;;;27.95;54.92
40117;BME280;25829;50.228;18.936;2022-08-19T09:50:38;98107.00;;;28.03;55.09
40117;BME280;25829;50.228;18.936;2022-08-19T09:53:39;98100.56;;;28.08;54.02
40117;BME280;25829;50.228;18.936;2022-08-19T09:56:39;98114.75;;;28.13;53.70
40117;BME280;25829;50.228;18.936;2022-08-19T09:59:40;98112.72;;;28.22;52.84
40117;BME280;25829;50.228;18.936;2022-08-19T10:02:56;98105.47;;;28.35;51.70
40117;BME280;25829;50.228;18.936;2022-08-19T10:06:00;98104.38;;;28.48;52.20
40117;BME280;25829;50.228;18.936;2022-08-19T10:09:02;98102.09;;;28.71;52.64
40117;BME280;25829;50.228;18.936;2022-08-19T10:12:12;98110.41;;;28.99;50.26
40117;BME280;25829;50.228;18.936;2022-08-19T10:15:13;98107.81;;;29.15;50.45
40117;BME280;25829;50.228;18.936;2022-08-19T10:18:14;98102.25;;;29.36;49.86
40117;BME280;25829;50.228;18.936;2022-08-19T10:21:23;98111.91;;;29.46;46.42
40117;BME280;25829;50.228;18.936;2022-08-19T10:24:24;98108.06;;;29.47;46.18
40117;BME280;25829;50.228;18.936;2022-08-19T10:27:26;98108.97;;;29.51;47.05
40117;BME280;25829;50.228;18.936;2022-08-19T10:30:27;98097.06;;;29.56;46.90
40117;BME280;25829;50.228;18.936;2022-08-19T10:33:28;98101.94;;;29.50;46.42
40117;BME280;25829;50.228;18.936;2022-08-19T10:36:32;98094.56;;;29.51;44.93
40117;BME280;25829;50.228;18.936;2022-08-19T10:39:34;98097.66;;;29.49;45.59
40117;BME280;25829;50.228;18.936;2022-08-19T10:42:36;98089.03;;;29.47;45.65
40117;BME280;25829;50.228;18.936;2022-08-19T10:45:36;98077.16;;;29.52;45.50
40117;BME280;25829;50.228;18.936;2022-08-19T10:48:37;98085.06;;;29.57;45.98
40117;BME280;25829;50.228;18.936;2022-08-19T10:51:39;98065.13;;;29.65;46.40
40117;BME280;25829;50.228;18.936;2022-08-19T10:55:04;98075.53;;;29.75;45.69
40117;BME280;25829;50.228;18.936;2022-08-19T10:58:23;98061.00;;;29.83;45.81
40117;BME280;25829;50.228;18.936;2022-08-19T11:01:26;98051.91;;;29.91;45.18
40117;BME280;25829;50.228;18.936;2022-08-19T11:04:28;98043.97;;;29.99;44.73
40117;BME280;25829;50.228;18.936;2022-08-19T11:07:29;98058.81;;;30.01;43.44
40117;BME280;25829;50.228;18.936;2022-08-19T11:10:29;98072.41;;;30.01;42.34
40117;BME280;25829;50.228;18.936;2022-08-19T11:13:32;98062.31;;;30.02;44.26
40117;BME280;25829;50.228;18.936;2022-08-19T11:16:36;98069.00;;;30.04;42.95
40117;BME280;25829;50.228;18.936;2022-08-19T11:19:39;98062.88;;;30.07;42.97
40117;BME280;25829;50.228;18.936;2022-08-19T11:22:40;98062.06;;;30.07;42.76
40117;BME280;25829;50.228;18.936;2022-08-19T11:25:41;98067.25;;;30.12;42.07
40117;BME280;25829;50.228;18.936;2022-08-19T11:28:42;98056.22;;;30.21;42.92
40117;BME280;25829;50.228;18.936;2022-08-19T11:31:49;98061.19;;;30.31;40.13
40117;BME280;25829;50.228;18.936;2022-08-19T11:34:50;98056.69;;;30.38;41.07
40117;BME280;25829;50.228;18.936;2022-08-19T11:37:50;98052.59;;;30.45;41.19
40117;BME280;25829;50.228;18.936;2022-08-19T11:41:00;98054.28;;;30.49;40.56
40117;BME280;25829;50.228;18.936;2022-08-19T11:44:02;98054.84;;;30.42;39.49
40117;BME280;25829;50.228;18.936;2022-08-19T11:47:04;98056.16;;;30.33;40.26
40117;BME280;25829;50.228;18.936;2022-08-19T11:50:05;98066.84;;;30.26;40.97
40117;BME280;25829;50.228;18.936;2022-08-19T12:06:33;98064.41;;;29.92;40.99
40117;BME280;25829;50.228;18.936;2022-08-19T12:09:38;98053.72;;;29.87;41.59
40117;BME280;25829;50.228;18.936;2022-08-19T12:12:39;98047.94;;;29.89;42.01
40117;BME280;25829;50.228;18.936;2022-08-19T12:15:42;98054.31;;;29.93;41.94
40117;BME280;25829;50.228;18.936;2022-08-19T12:18:46;98045.09;;;29.98;41.87
40117;BME280;25829;50.228;18.936;2022-08-19T12:21:47;98044.16;;;30.06;41.91
40117;BME280;25829;50.228;18.936;2022-08-19T12:24:51;98036.63;;;30.15;41.19
40117;BME280;25829;50.228;18.936;2022-08-19T12:27:53;98035.16;;;30.17;40.66
40117;BME280;25829;50.228;18.936;2022-08-19T12:30:56;98034.09;;;30.22;41.43
40117;BME280;25829;50.228;18.936;2022-08-19T12:33:57;98024.78;;;30.23;41.04
40117;BME280;25829;50.228;18.936;2022-08-19T12:37:00;98028.66;;;30.22;41.43
40117;BME280;25829;50.228;18.936;2022-08-19T12:40:02;98022.06;;;30.23;41.49
40117;BME280;25829;50.228;18.936;2022-08-19T12:43:04;98019.44;;;30.27;42.20
40117;BME280;25829;50.228;18.936;2022-08-19T12:46:05;98019.75;;;30.37;42.08
40117;BME280;25829;50.228;18.936;2022-08-19T12:49:06;98007.56;;;30.47;41.26
40117;BME280;25829;50.228;18.936;2022-08-19T12:52:08;98014.44;;;30.57;41.16
40117;BME280;25829;50.228;18.936;2022-08-19T12:55:12;98014.59;;;30.64;40.63
40117;BME280;25829;50.228;18.936;2022-08-19T12:58:28;98010.03;;;30.68;38.39
40117;BME280;25829;50.228;18.936;2022-08-19T13:01:29;98009.53;;;30.62;38.85
40117;BME280;25829;50.228;18.936;2022-08-19T13:04:34;98003.53;;;30.57;39.75
40117;BME280;25829;50.228;18.936;2022-08-19T13:07:41;98020.56;;;30.54;39.76
40117;BME280;25829;50.228;18.936;2022-08-19T13:10:42;98002.22;;;30.51;40.28
40117;BME280;25829;50.228;18.936;2022-08-19T13:13:44;98004.59;;;30.52;40.43
40117;BME280;25829;50.228;18.936;2022-08-19T13:16:45;98008.19;;;30.56;40.94
40117;BME280;25829;50.228;18.936;2022-08-19T13:19:46;98010.31;;;30.63;39.98
40117;BME280;25829;50.228;18.936;2022-08-19T13:22:48;98010.84;;;30.69;39.59
40117;BME280;25829;50.228;18.936;2022-08-19T13:26:05;98012.84;;;30.72;39.09
40117;BME280;25829;50.228;18.936;2022-08-19T13:29:06;98006.69;;;30.75;39.84
40117;BME280;25829;50.228;18.936;2022-08-19T13:32:25;98010.72;;;30.81;38.75
40117;BME280;25829;50.228;18.936;2022-08-19T13:35:48;98011.59;;;30.85;38.80
40117;BME280;25829;50.228;18.936;2022-08-19T13:38:49;98010.09;;;30.87;39.51
40117;BME280;25829;50.228;18.936;2022-08-19T13:41:50;98005.81;;;30.86;39.07
40117;BME280;25829;50.228;18.936;2022-08-19T13:44:53;98006.16;;;30.85;39.65
40117;BME280;25829;50.228;18.936;2022-08-19T13:47:56;98004.94;;;30.82;39.78
40117;BME280;25829;50.228;18.936;2022-08-19T13:50:57;97995.97;;;30.82;39.78
40117;BME280;25829;50.228;18.936;2022-08-19T13:53:58;97997.56;;;30.83;39.45
40117;BME280;25829;50.228;18.936;2022-08-19T13:56:59;97988.31;;;30.87;39.66
40117;BME280;25829;50.228;18.936;2022-08-19T14:00:00;97982.69;;;30.96;39.95
40117;BME280;25829;50.228;18.936;2022-08-19T14:03:12;97989.53;;;31.06;39.65
40117;BME280;25829;50.228;18.936;2022-08-19T14:06:13;97994.28;;;31.09;40.24
40117;BME280;25829;50.228;18.936;2022-08-19T14:09:14;97984.25;;;31.13;40.47
40117;BME280;25829;50.228;18.936;2022-08-19T14:12:18;97985.06;;;31.14;40.52
40117;BME280;25829;50.228;18.936;2022-08-19T14:15:19;97989.38;;;31.15;41.29
40117;BME280;25829;50.228;18.936;2022-08-19T14:18:20;97987.06;;;31.17;40.69
40117;BME280;25829;50.228;18.936;2022-08-19T14:21:24;97981.19;;;31.15;40.69
40117;BME280;25829;50.228;18.936;2022-08-19T14:24:25;97976.91;;;31.14;40.52
40117;BME280;25829;50.228;18.936;2022-08-19T14:27:26;97976.78;;;31.10;40.10
40117;BME280;25829;50.228;18.936;2022-08-19T14:30:30;97965.47;;;31.08;40.25
40117;BME280;25829;50.228;18.936;2022-08-19T14:33:32;97966.97;;;31.05;40.49
40117;BME280;25829;50.228;18.936;2022-08-19T14:36:33;97970.41;;;31.02;40.07
40117;BME280;25829;50.228;18.936;2022-08-19T14:39:35;97976.22;;;31.01;39.94
40117;BME280;25829;50.228;18.936;2022-08-19T14:42:35;97964.41;;;30.97;40.48
40117;BME280;25829;50.228;18.936;2022-08-19T14:45:38;97956.59;;;30.95;40.08
40117;BME280;25829;50.228;18.936;2022-08-19T14:48:39;97948.06;;;30.97;40.28
40117;BME280;25829;50.228;18.936;2022-08-19T14:51:40;97936.84;;;30.98;40.61
40117;BME280;25829;50.228;18.936;2022-08-19T14:54:41;97930.25;;;30.99;40.26
40117;BME280;25829;50.228;18.936;2022-08-19T14:57:43;97933.34;;;30.98;40.25
40117;BME280;25829;50.228;18.936;2022-08-19T15:00:44;97927.00;;;30.94;40.25
40117;BME280;25829;50.228;18.936;2022-08-19T15:03:46;97932.00;;;30.92;40.12
40117;BME280;25829;50.228;18.936;2022-08-19T15:06:47;97921.81;;;30.88;40.56
40117;BME280;25829;50.228;18.936;2022-08-19T15:09:49;97923.66;;;30.84;40.82
40117;BME280;25829;50.228;18.936;2022-08-19T15:12:51;97928.69;;;30.82;40.92
40117;BME280;25829;50.228;18.936;2022-08-19T15:15:52;97931.34;;;30.79;40.69
40117;BME280;25829;50.228;18.936;2022-08-19T15:18:55;97923.88;;;30.76;40.68
40117;BME280;25829;50.228;18.936;2022-08-19T15:21:57;97927.63;;;30.71;41.06
40117;BME280;25829;50.228;18.936;2022-08-19T15:24:58;97922.41;;;30.62;40.36
40117;BME280;25829;50.228;18.936;2022-08-19T15:27:59;97912.91;;;30.56;41.02
40117;BME280;25829;50.228;18.936;2022-08-19T15:31:01;97901.88;;;30.49;41.38
40117;BME280;25829;50.228;18.936;2022-08-19T15:34:03;97898.94;;;30.42;41.52
40117;BME280;25829;50.228;18.936;2022-08-19T15:37:04;97902.66;;;30.34;41.94
40117;BME280;25829;50.228;18.936;2022-08-19T15:40:06;97888.06;;;30.26;42.20
40117;BME280;25829;50.228;18.936;2022-08-19T15:43:09;97882.81;;;30.17;42.46
40117;BME280;25829;50.228;18.936;2022-08-19T15:46:10;97881.41;;;30.08;42.54
40117;BME280;25829;50.228;18.936;2022-08-19T15:49:14;97882.81;;;30.02;42.83
40117;BME280;25829;50.228;18.936;2022-08-19T15:52:19;97898.59;;;29.96;42.87
40117;BME280;25829;50.228;18.936;2022-08-19T15:55:24;97910.84;;;29.90;42.68
40117;BME280;25829;50.228;18.936;2022-08-19T15:58:25;97906.09;;;29.87;43.00
40117;BME280;25829;50.228;18.936;2022-08-19T16:01:44;97928.91;;;29.82;43.68
40117;BME280;25829;50.228;18.936;2022-08-19T16:05:07;97924.06;;;29.76;44.03
40117;BME280;25829;50.228;18.936;2022-08-19T16:08:26;97933.97;;;29.68;44.43
40117;BME280;25829;50.228;18.936;2022-08-19T16:11:30;97938.38;;;29.60;44.28
40117;BME280;25829;50.228;18.936;2022-08-19T16:14:33;97930.03;;;29.53;44.52